Brak ostrzeżeń pogodowych   -   Brak ostrzeżeń pogodowych

Raporty Pogodowe z Lotnisk

 

EPKK - Krakow/Balice, Poland
Odległość od stacji: Zd 81km
Aktualizacja: 21/11/2019 09:30
Małe zachmurzenie
Małe zachmurzenie
 Wiatr z PnWs
Wiatr: PnWs 15 km/h
Temperatura: 9°C
Temperatura Odczuwalna: 7°C
Punkt Rosy: 8°C
Wilgotność Względna: 94%
Ciśnienie Względne: 1014 hPa
Chmury: Małe zachmurzenie
Widoczność: 10 km
Szczegóły chmur: Małe zachmurzenie 213 m
2019/11/21 08:30 EPKK 210830Z 05008KT 9999 FEW007 09/08 Q1014
EPRZ - Rzeszow/Jasionka, Poland
Odległość od stacji: Ws 81km
Aktualizacja: 21/11/2019 09:30
Pochmurnie
Pochmurnie
 Wiatr z Ws
Wiatr: Ws 37 km/h
Temperatura: 9°C
Temperatura Odczuwalna: 4°C
Punkt Rosy: 8°C
Wilgotność Względna: 94%
Ciśnienie Względne: 1018 hPa
Chmury: Pochmurnie
Widoczność: 10 km
Szczegóły chmur: Pochmurnie 213 m
2019/11/21 08:30 EPRZ 210830Z 10020KT 9999 OVC007 09/08 Q1018
 
EPKT - Katowice/Pyrzowice, Poland
Odległość od stacji: ZdPnZd 141km
Aktualizacja: 21/11/2019 09:30
Małe zachmurzenie
Małe zachmurzenie
 Wiatr z WsPdWs
Wiatr: WsPdWs 19 km/h
Temperatura: 9°C
Temperatura Odczuwalna: 6°C
Punkt Rosy: 8°C
Wilgotność Względna: 94%
Ciśnienie Względne: 1013 hPa
Chmury: Małe zachmurzenie
Widoczność: 10 km
Szczegóły chmur: Małe zachmurzenie 244 m
2019/11/21 08:30 EPKT 210830Z 11010KT 9999 FEW008 09/08 Q1013
EPWA - Warsaw/Okecie, Poland
Odległość od stacji: Pn 240km
Aktualizacja: 21/11/2019 09:30
Przeważnie pochmurno
Przeważnie pochmurno
 Wiatr z WsPdWs
Wiatr: WsPdWs 31 km/h, Poryw: 50 km/h
Temperatura: 7°C
Temperatura Odczuwalna: 3°C
Punkt Rosy: 6°C
Wilgotność Względna: 93%
Ciśnienie Względne: 1019 hPa
Chmury: Przeważnie pochmurno
Widoczność: 10 km
Szczegóły chmur: Przeważnie pochmurno 274 m
2019/11/21 08:30 EPWA 210830Z 11017G27KT 9999 BKN009 07/06 Q1019 NOSIG
 
EPLL - Lodz/Lublinek, Poland
Odległość od stacji: PnPnZd 218km
Aktualizacja: 21/11/2019 09:30
Pochmurnie
Pochmurnie
 Wiatr z Ws
Wiatr: Ws 26 km/h
Temperatura: 10°C
Temperatura Odczuwalna: 7°C
Punkt Rosy: 8°C
Wilgotność Względna: 88%
Ciśnienie Względne: 1015 hPa
Chmury: Pochmurnie
Widoczność: 10 km
Szczegóły chmur: Pochmurnie 274 m
2019/11/21 08:30 EPLL 210830Z 09014KT 9999 OVC009 10/08 Q1015
EPWR - Wroclaw/Strachowice, Poland
Odległość od stacji: ZdPnZd 311km
Aktualizacja: 21/11/2019 09:30
Słabe opady deszczu, Mgła, Częściowe zachmurzenie
Słabe opady deszczu, Mgła, Częściowe zachmurzenie
 Wiatr z PdWs
Wiatr: PdWs 11 km/h
Temperatura: 9°C
Temperatura Odczuwalna: 7°C
Punkt Rosy: 8°C
Wilgotność Względna: 94%
Ciśnienie Względne: 1013 hPa
Podsumowanie: Słabe opady deszczu, Mgła
Chmury: Częściowe zachmurzenie
Widoczność: 5 km
Szczegóły chmur: Małe zachmurzenie 213 m
Częściowe zachmurzenie 335 m
2019/11/21 08:30 EPWR 210830Z 13006KT 4500 -RA BR FEW007 SCT011 09/08 Q1013
 
EPGD - Gdansk/Rebiechowo, Poland
Odległość od stacji: PnZd 553km
Aktualizacja: 21/11/2019 09:30
Pochmurnie
Pochmurnie
 Wiatr z WsPdWs
Wiatr: WsPdWs 31 km/h
Temperatura: 7°C
Temperatura Odczuwalna: 3°C
Punkt Rosy: 6°C
Wilgotność Względna: 93%
Ciśnienie Względne: 1019 hPa
Chmury: Pochmurnie
Widoczność: 10 km
Szczegóły chmur: Częściowe zachmurzenie 183 m
Pochmurnie 213 m
2019/11/21 08:30 EPGD 210830Z 12017KT 9999 SCT006 OVC007 07/06 Q1019
EPSC - Szczecin/Goleniow, Poland
Odległość od stacji: ZdPnZd 635km
Aktualizacja: 21/11/2019 09:30
Mgła, Pochmurnie
Mgła, Pochmurnie
 Wiatr z WsPnWs
Wiatr: WsPnWs 11 km/h
Temperatura: 9°C
Temperatura Odczuwalna: 7°C
Punkt Rosy: 9°C
Wilgotność Względna: 100%
Ciśnienie Względne: 1014 hPa
Podsumowanie: Mgła
Chmury: Pochmurnie
Widoczność: 5 km
Szczegóły chmur: Przeważnie pochmurno 335 m
Pochmurnie 396 m
2019/11/21 08:30 EPSC 210830Z 07006KT 5000 BR BKN011 OVC013 09/09 Q1014